createdAt,value
2022-12-19T00:00:50.484Z,9.40
2022-12-19T00:03:27.465Z,6.70
2022-12-19T00:05:56.088Z,6.30
2022-12-19T00:08:24.557Z,8.80
2022-12-19T00:10:58.680Z,8.30
2022-12-19T00:13:29.194Z,8.40
2022-12-19T00:16:07.767Z,8.70
2022-12-19T00:18:36.749Z,6.20
2022-12-19T00:21:06.034Z,9.40
2022-12-19T00:23:35.379Z,7.80
2022-12-19T00:26:27.405Z,6.50
2022-12-19T00:28:58.608Z,6.80
2022-12-19T00:31:29.258Z,5.70
2022-12-19T00:33:58.300Z,5.20
2022-12-19T00:36:29.731Z,6.40
2022-12-19T00:38:59.965Z,8.00
2022-12-19T00:41:31.175Z,6.10
2022-12-19T00:44:02.493Z,7.50
2022-12-19T00:46:34.686Z,6.90
2022-12-19T00:49:04.829Z,3.00
2022-12-19T00:51:35.364Z,7.70
2022-12-19T00:54:05.482Z,11.40
2022-12-19T00:56:37.785Z,7.40
2022-12-19T00:59:10.696Z,6.40
2022-12-19T01:01:41.770Z,5.50
2022-12-19T01:04:34.486Z,5.90
2022-12-19T01:07:07.813Z,6.10
2022-12-19T01:09:37.500Z,5.70
2022-12-19T01:12:26.759Z,4.70
2022-12-19T01:15:02.859Z,7.00
2022-12-19T01:17:36.529Z,7.50
2022-12-19T01:20:27.652Z,6.70
2022-12-19T01:23:00.624Z,7.50
2022-12-19T01:25:29.952Z,6.20
2022-12-19T01:27:59.027Z,6.10
2022-12-19T01:30:29.119Z,8.70
2022-12-19T01:33:00.792Z,5.00
2022-12-19T01:35:29.698Z,4.70
2022-12-19T01:38:07.927Z,6.20
2022-12-19T01:40:38.140Z,6.10
2022-12-19T01:43:15.904Z,6.60
2022-12-19T01:45:47.027Z,9.90
2022-12-19T01:48:27.376Z,6.70
2022-12-19T01:51:02.973Z,7.20
2022-12-19T01:53:49.755Z,8.30
2022-12-19T01:56:25.892Z,4.90
2022-12-19T01:59:00.968Z,5.40
2022-12-19T02:01:47.040Z,6.60
2022-12-19T02:04:21.345Z,5.20
2022-12-19T02:06:50.875Z,4.50
2022-12-19T02:11:54.404Z,8.70
2022-12-19T02:14:23.887Z,4.40
2022-12-19T02:17:03.247Z,7.80
2022-12-19T02:20:04.665Z,5.70
2022-12-19T02:22:58.536Z,5.90
2022-12-19T02:25:36.135Z,4.10
2022-12-19T02:28:41.541Z,9.10
2022-12-19T02:31:16.457Z,7.00
2022-12-19T02:34:20.833Z,6.70
2022-12-19T02:37:17.876Z,8.70
2022-12-19T02:40:02.834Z,5.90
2022-12-19T02:42:36.679Z,6.20
2022-12-19T02:45:10.194Z,5.10
2022-12-19T02:47:40.894Z,4.30
2022-12-19T02:50:10.924Z,8.00
2022-12-19T02:52:40.753Z,7.00
2022-12-19T02:55:15.910Z,5.30
2022-12-19T02:58:17.744Z,5.60
2022-12-19T03:01:16.874Z,7.40
2022-12-19T03:04:07.747Z,5.10
2022-12-19T03:06:55.730Z,6.30
2022-12-19T03:09:32.742Z,4.00
2022-12-19T03:12:15.622Z,5.90
2022-12-19T03:14:49.786Z,4.30
2022-12-19T03:17:20.973Z,6.30
2022-12-19T03:19:51.750Z,7.30
2022-12-19T03:22:22.723Z,8.40
2022-12-19T03:24:53.706Z,5.20
2022-12-19T03:27:32.790Z,11.30
2022-12-19T03:30:10.718Z,7.40
2022-12-19T03:32:44.728Z,6.40
2022-12-19T03:35:23.728Z,7.90
2022-12-19T03:37:56.691Z,4.70
2022-12-19T03:40:28.709Z,4.60
2022-12-19T03:43:09.714Z,7.20
2022-12-19T03:45:57.770Z,3.80
2022-12-19T03:48:33.733Z,9.00
2022-12-19T03:51:25.755Z,4.80
2022-12-19T03:54:17.713Z,7.50
2022-12-19T03:57:09.712Z,3.80
2022-12-19T04:00:15.721Z,6.00
2022-12-19T04:02:51.693Z,5.50
2022-12-19T04:05:27.711Z,5.20
2022-12-19T04:08:07.718Z,5.00
2022-12-19T04:10:52.761Z,7.60
2022-12-19T04:13:38.717Z,5.40
2022-12-19T04:16:45.670Z,6.50
2022-12-19T04:19:31.710Z,5.60
2022-12-19T04:22:13.682Z,6.50
2022-12-19T04:24:47.744Z,5.10
2022-12-19T04:27:22.640Z,8.60
2022-12-19T04:30:00.667Z,4.90
2022-12-19T04:32:38.733Z,6.20
2022-12-19T04:35:13.662Z,5.40
2022-12-19T04:37:46.689Z,9.30
2022-12-19T04:40:19.690Z,8.60
2022-12-19T04:42:53.690Z,8.50
2022-12-19T04:45:26.678Z,6.80
2022-12-19T04:47:59.691Z,5.70
2022-12-19T04:50:33.697Z,7.10
2022-12-19T05:01:14.615Z,7.40
2022-12-19T05:03:43.364Z,7.00
2022-12-19T05:06:14.823Z,6.30
2022-12-19T05:08:44.620Z,9.60
2022-12-19T05:11:19.741Z,5.00
2022-12-19T05:13:50.385Z,4.90
2022-12-19T05:16:19.432Z,8.40
2022-12-19T05:18:48.172Z,8.10
2022-12-19T05:21:16.954Z,8.70
2022-12-19T05:23:45.845Z,5.40
2022-12-19T05:26:14.747Z,7.10
2022-12-19T05:28:44.057Z,6.90
2022-12-19T05:31:20.148Z,4.60
2022-12-19T05:33:49.536Z,7.80
2022-12-19T05:36:18.998Z,6.30
2022-12-19T05:38:47.886Z,8.00
2022-12-19T05:41:19.410Z,4.30
2022-12-19T05:43:54.887Z,7.90
2022-12-19T05:46:24.863Z,4.90
2022-12-19T05:48:54.096Z,7.50
2022-12-19T05:51:23.499Z,6.30
2022-12-19T05:53:52.099Z,10.50
2022-12-19T05:56:23.025Z,6.70
2022-12-19T05:58:51.739Z,10.00
2022-12-19T06:01:25.718Z,6.10
2022-12-19T06:03:55.427Z,6.50
2022-12-19T06:06:26.635Z,8.40
2022-12-19T06:08:57.618Z,4.60
2022-12-19T06:11:27.487Z,7.10
2022-12-19T06:13:56.208Z,4.70
2022-12-19T06:16:25.157Z,6.90
2022-12-19T06:18:55.224Z,3.50
2022-12-19T06:21:24.902Z,6.30
2022-12-19T06:23:55.267Z,3.90
2022-12-19T06:26:24.141Z,4.70
2022-12-19T06:28:53.772Z,4.30
2022-12-19T06:31:24.697Z,6.30
2022-12-19T06:33:55.549Z,7.30
2022-12-19T06:36:29.246Z,5.00
2022-12-19T06:38:59.154Z,4.60
2022-12-19T06:41:46.792Z,6.90
2022-12-19T06:44:17.623Z,3.00
2022-12-19T06:46:46.327Z,6.50
2022-12-19T06:49:15.509Z,4.30
2022-12-19T06:51:45.409Z,4.30
2022-12-19T06:54:15.010Z,5.50
2022-12-19T06:56:45.001Z,5.90
2022-12-19T06:59:15.905Z,3.30
2022-12-19T07:02:30.861Z,4.40
2022-12-19T07:05:07.120Z,5.10
2022-12-19T07:07:36.399Z,4.80
2022-12-19T07:10:06.487Z,4.80
2022-12-19T07:12:37.558Z,3.80
2022-12-19T07:15:06.954Z,3.00
2022-12-19T07:17:39.621Z,2.20
2022-12-19T07:20:09.256Z,4.40
2022-12-19T07:22:38.251Z,3.90
2022-12-19T07:25:07.952Z,5.80
2022-12-19T07:27:37.490Z,3.60
2022-12-19T07:30:08.204Z,4.80
2022-12-19T07:32:37.278Z,6.00
2022-12-19T07:35:10.251Z,4.50
2022-12-19T07:37:38.951Z,4.80
2022-12-19T07:40:08.364Z,4.10
2022-12-19T07:42:37.222Z,4.90
2022-12-19T07:45:06.813Z,4.10
2022-12-19T07:47:35.438Z,3.60
2022-12-19T07:50:05.048Z,2.80
2022-12-19T07:52:33.834Z,5.10
2022-12-19T07:55:02.623Z,3.40
2022-12-19T07:57:31.524Z,3.60
2022-12-19T08:00:00.607Z,4.20
2022-12-19T08:02:29.500Z,3.30
2022-12-19T08:04:58.588Z,3.70
2022-12-19T08:07:27.378Z,2.70
2022-12-19T08:09:56.469Z,4.00
2022-12-19T08:12:25.260Z,2.90
2022-12-19T08:14:57.159Z,3.80
2022-12-19T08:17:26.618Z,2.20
2022-12-19T08:19:55.622Z,2.50
2022-12-19T08:22:24.424Z,3.80
2022-12-19T08:24:53.296Z,4.30
2022-12-19T08:27:22.211Z,4.10
2022-12-19T08:29:51.102Z,4.20
2022-12-19T08:32:21.697Z,4.20
2022-12-19T08:34:51.120Z,4.30
2022-12-19T08:37:19.905Z,3.50
2022-12-19T08:39:48.902Z,4.20
2022-12-19T08:42:17.908Z,2.40
2022-12-19T08:44:46.672Z,3.10
2022-12-19T08:47:15.382Z,2.40
2022-12-19T08:49:43.978Z,4.50
2022-12-19T08:52:12.832Z,2.60
2022-12-19T08:54:45.044Z,1.80
2022-12-19T08:59:42.579Z,3.70
2022-12-19T09:02:12.722Z,4.50
2022-12-19T09:06:01.464Z,3.20
2022-12-19T09:07:31.283Z,2.90
2022-12-19T09:10:00.280Z,2.10
2022-12-19T09:12:28.865Z,3.60
2022-12-19T09:14:57.323Z,2.30
2022-12-19T09:17:25.998Z,2.70
2022-12-19T09:19:54.637Z,2.80
2022-12-19T09:22:29.438Z,1.40
2022-12-19T09:24:58.314Z,3.40
2022-12-19T09:27:27.264Z,2.40
2022-12-19T09:29:55.785Z,2.30
2022-12-19T09:32:24.436Z,2.50
2022-12-19T09:34:52.955Z,4.90
2022-12-19T09:37:21.951Z,2.40
2022-12-19T09:39:50.735Z,2.00
2022-12-19T09:42:41.341Z,2.10
2022-12-19T09:45:31.084Z,3.00
2022-12-19T09:48:02.180Z,2.20
2022-12-19T09:50:33.918Z,2.40
2022-12-19T09:53:41.746Z,1.90
2022-12-19T09:56:15.366Z,3.30
2022-12-19T09:59:17.697Z,3.40
2022-12-19T10:02:24.511Z,2.50
2022-12-19T10:06:29.093Z,4.10
2022-12-19T10:08:19.904Z,2.50
2022-12-19T10:12:39.023Z,2.40
2022-12-19T10:13:56.143Z,2.30
2022-12-19T10:19:08.357Z,2.80
2022-12-19T10:22:17.097Z,2.30
2022-12-19T10:25:09.217Z,2.20
2022-12-19T10:27:59.840Z,3.60
2022-12-19T10:30:38.776Z,3.90
2022-12-19T10:33:32.602Z,2.90
2022-12-19T10:36:12.471Z,3.80
2022-12-19T10:38:57.709Z,5.30
2022-12-19T10:41:29.064Z,6.00
2022-12-19T10:44:07.022Z,3.10
2022-12-19T10:46:53.286Z,2.40
2022-12-19T10:49:26.087Z,2.10
2022-12-19T10:51:57.279Z,3.00
2022-12-19T10:54:37.671Z,3.10
2022-12-19T10:57:26.435Z,2.20
2022-12-19T11:00:17.010Z,2.80
2022-12-19T11:02:48.776Z,3.40
2022-12-19T11:05:29.259Z,3.50
2022-12-19T11:08:02.223Z,3.60
2022-12-19T11:10:57.696Z,2.40
2022-12-19T11:17:43.440Z,2.00
2022-12-19T11:28:58.455Z,5.00
2022-12-19T11:29:42.130Z,9.10
2022-12-19T11:29:43.273Z,6.30
2022-12-19T11:34:24.170Z,2.00
2022-12-19T11:37:10.642Z,1.50
2022-12-19T11:39:50.928Z,2.20
2022-12-19T11:42:31.257Z,2.60
2022-12-19T11:45:41.119Z,2.90
2022-12-19T11:48:25.053Z,2.80
2022-12-19T11:51:06.819Z,2.50
2022-12-19T11:54:01.762Z,3.20
2022-12-19T11:56:30.259Z,2.60
2022-12-19T11:59:07.934Z,2.20
2022-12-19T12:01:58.480Z,2.60
2022-12-19T12:05:11.273Z,2.90
2022-12-19T12:08:38.053Z,4.70
2022-12-19T12:14:36.951Z,2.00
2022-12-19T12:21:50.667Z,1.80
2022-12-19T12:28:11.158Z,2.70
2022-12-19T12:31:04.640Z,2.70
2022-12-19T12:31:51.533Z,2.30
2022-12-19T12:31:53.736Z,3.20
2022-12-19T12:32:06.160Z,2.90
2022-12-19T12:41:58.422Z,2.40
2022-12-19T12:44:32.588Z,3.20
2022-12-19T12:47:20.630Z,2.50
2022-12-19T12:49:54.571Z,3.10
2022-12-19T12:52:38.139Z,4.20
2022-12-19T12:55:18.076Z,2.00
2022-12-19T12:57:46.665Z,3.20
2022-12-19T13:00:21.344Z,3.10
2022-12-19T13:03:12.990Z,2.90
2022-12-19T13:05:54.345Z,3.40
2022-12-19T13:08:36.983Z,3.50
2022-12-19T13:11:33.407Z,4.70
2022-12-19T13:14:02.049Z,5.00
2022-12-19T13:16:45.931Z,4.30
2022-12-19T13:19:28.032Z,2.90
2022-12-19T13:22:09.624Z,3.00
2022-12-19T13:24:48.373Z,2.10
2022-12-19T13:27:19.693Z,2.70
2022-12-19T13:30:00.332Z,2.30
2022-12-19T13:32:41.061Z,3.20
2022-12-19T13:36:14.341Z,3.20
2022-12-19T13:39:57.112Z,3.60
2022-12-19T13:41:26.411Z,3.70
2022-12-19T13:43:59.892Z,1.80
2022-12-19T13:46:46.101Z,3.10
2022-12-19T13:49:20.807Z,2.00
2022-12-19T13:51:55.247Z,5.40
2022-12-19T13:54:31.991Z,1.70
2022-12-19T13:57:09.366Z,3.20
2022-12-19T13:59:40.412Z,2.40
2022-12-19T14:02:32.445Z,2.70
2022-12-19T14:06:16.347Z,3.70
2022-12-19T14:08:25.736Z,2.70
2022-12-19T14:11:31.024Z,2.60
2022-12-19T14:14:12.708Z,2.80
2022-12-19T14:16:46.138Z,2.50
2022-12-19T14:19:27.965Z,1.70
2022-12-19T14:22:25.219Z,3.40
2022-12-19T14:26:06.014Z,1.40
2022-12-19T14:28:26.253Z,2.40
2022-12-19T14:30:52.634Z,3.60
2022-12-19T14:33:43.423Z,3.10
2022-12-19T14:36:31.801Z,2.50
2022-12-19T14:39:27.800Z,3.00
2022-12-19T14:42:11.391Z,3.40
2022-12-19T14:51:08.611Z,1.60
2022-12-19T14:52:35.511Z,1.70
2022-12-19T14:54:23.411Z,3.60
2022-12-19T14:54:23.585Z,3.60
2022-12-19T14:56:40.618Z,1.70
2022-12-19T14:59:44.243Z,2.00
2022-12-19T15:02:27.958Z,2.10
2022-12-19T15:05:16.071Z,4.40
2022-12-19T15:07:49.754Z,3.60
2022-12-19T15:11:09.051Z,2.70
2022-12-19T15:14:47.700Z,2.10
2022-12-19T15:16:32.146Z,3.80
2022-12-19T15:19:02.778Z,5.30
2022-12-19T15:21:32.318Z,4.30
2022-12-19T15:24:01.741Z,3.70
2022-12-19T15:26:36.908Z,4.90
2022-12-19T15:29:19.739Z,2.80
2022-12-19T15:31:50.871Z,2.90
2022-12-19T15:34:35.499Z,3.10
2022-12-19T15:37:05.748Z,4.30
2022-12-19T15:39:34.469Z,4.00
2022-12-19T15:42:04.697Z,2.20
2022-12-19T15:44:37.977Z,4.80
2022-12-19T15:47:19.982Z,5.60
2022-12-19T15:49:49.070Z,2.60
2022-12-19T15:52:20.607Z,3.40
2022-12-19T15:54:51.284Z,2.10
2022-12-19T15:57:36.680Z,2.40
2022-12-19T16:00:19.618Z,4.50
2022-12-19T16:05:39.682Z,3.40
2022-12-19T16:08:15.610Z,2.80
2022-12-19T16:10:49.604Z,2.40
2022-12-19T16:13:25.586Z,3.30
2022-12-19T16:15:57.278Z,2.80
2022-12-19T16:18:27.597Z,3.00
2022-12-19T16:20:59.936Z,2.50
2022-12-19T16:23:29.568Z,1.90
2022-12-19T16:26:00.597Z,2.50
2022-12-19T16:28:34.613Z,2.00
2022-12-19T16:31:16.625Z,2.40
2022-12-19T16:33:45.839Z,3.20
2022-12-19T16:36:16.579Z,2.00
2022-12-19T16:38:46.586Z,2.20
2022-12-19T16:41:20.567Z,4.50
2022-12-19T16:43:52.601Z,1.90
2022-12-19T16:46:24.590Z,5.20
2022-12-19T16:48:54.578Z,5.10
2022-12-19T16:51:28.605Z,2.40
2022-12-19T16:54:02.580Z,2.90
2022-12-19T16:56:39.484Z,5.50
2022-12-19T16:59:40.600Z,3.30
2022-12-19T17:03:01.692Z,3.80
2022-12-19T17:05:35.595Z,2.20
2022-12-19T17:08:18.565Z,2.20
2022-12-19T17:10:51.551Z,4.40
2022-12-19T17:13:26.582Z,3.30
2022-12-19T17:16:07.577Z,1.90
2022-12-19T17:18:44.542Z,4.10
2022-12-19T17:21:24.558Z,3.90
2022-12-19T17:23:58.520Z,3.00
2022-12-19T17:26:31.596Z,3.40
2022-12-19T17:29:05.545Z,3.10
2022-12-19T17:31:40.663Z,2.50
2022-12-19T17:34:27.515Z,3.30
2022-12-19T17:37:01.561Z,2.90
2022-12-19T17:39:37.553Z,4.30
2022-12-19T17:42:35.322Z,2.50
2022-12-19T17:45:13.508Z,2.20
2022-12-19T17:47:47.543Z,3.80
2022-12-19T17:50:24.500Z,2.50
2022-12-19T18:01:23.864Z,2.50
2022-12-19T18:06:22.659Z,2.50
2022-12-19T18:08:51.650Z,2.50
2022-12-19T18:11:23.013Z,3.50
2022-12-19T18:13:53.717Z,1.90
2022-12-19T18:16:28.625Z,2.30
2022-12-19T18:18:57.451Z,2.70
2022-12-19T18:21:26.418Z,5.30
2022-12-19T18:23:55.514Z,3.60
2022-12-19T18:26:24.400Z,2.00
2022-12-19T18:28:54.742Z,3.50
2022-12-19T18:31:26.403Z,3.40
2022-12-19T18:34:02.048Z,2.50
2022-12-19T18:36:40.909Z,3.30
2022-12-19T18:39:25.003Z,3.30
2022-12-19T18:41:54.866Z,4.00
2022-12-19T18:44:23.632Z,2.70
2022-12-19T18:46:53.315Z,3.60
2022-12-19T18:49:23.234Z,7.00
2022-12-19T18:51:52.128Z,3.10
2022-12-19T18:54:23.055Z,3.10
2022-12-19T18:56:52.318Z,4.30
2022-12-19T18:59:21.448Z,3.50
2022-12-19T19:01:50.971Z,3.70
2022-12-19T19:04:20.150Z,3.70
2022-12-19T19:06:52.836Z,3.30
2022-12-19T19:09:22.169Z,6.00
2022-12-19T19:12:13.549Z,4.10
2022-12-19T19:14:42.538Z,5.30
2022-12-19T19:17:26.552Z,3.70
2022-12-19T19:19:55.685Z,2.00
2022-12-19T19:22:25.122Z,2.10
2022-12-19T19:24:53.894Z,3.80
2022-12-19T19:27:22.664Z,5.00
2022-12-19T19:29:51.653Z,2.40
2022-12-19T19:32:20.645Z,5.30
2022-12-19T19:34:50.152Z,3.00
2022-12-19T19:37:19.246Z,5.40
2022-12-19T19:39:53.873Z,2.70
2022-12-19T19:42:22.978Z,5.60
2022-12-19T19:44:51.975Z,5.10
2022-12-19T19:47:32.741Z,4.90
2022-12-19T19:50:02.155Z,5.10
2022-12-19T19:52:33.274Z,3.00
2022-12-19T19:55:02.038Z,3.70
2022-12-19T19:57:30.867Z,2.20
2022-12-19T19:59:59.763Z,2.80
2022-12-19T20:02:28.629Z,4.10
2022-12-19T20:04:57.939Z,4.00
2022-12-19T20:07:29.360Z,5.50
2022-12-19T20:09:58.853Z,3.40
2022-12-19T20:12:27.580Z,3.90
2022-12-19T20:14:56.430Z,2.90
2022-12-19T20:17:25.609Z,3.90
2022-12-19T20:19:54.562Z,2.70
2022-12-19T20:22:23.448Z,4.90
2022-12-19T20:24:52.440Z,4.10
2022-12-19T20:27:21.350Z,3.20
2022-12-19T20:29:50.430Z,5.00
2022-12-19T20:32:19.728Z,3.50
2022-12-19T20:34:48.793Z,2.90
2022-12-19T20:37:17.987Z,4.00
2022-12-19T20:39:47.010Z,3.50
2022-12-19T20:42:15.795Z,3.50
2022-12-19T20:44:44.903Z,4.20
2022-12-19T20:47:13.687Z,3.40
2022-12-19T20:49:42.415Z,2.60
2022-12-19T20:52:11.945Z,2.80
2022-12-19T20:54:40.658Z,6.00
2022-12-19T20:57:09.754Z,4.50
2022-12-19T20:59:38.733Z,4.70
2022-12-19T21:02:08.353Z,5.40
2022-12-19T21:04:37.992Z,3.10
2022-12-19T21:07:07.000Z,2.30
2022-12-19T21:09:35.966Z,4.40
2022-12-19T21:12:05.770Z,2.60
2022-12-19T21:14:34.511Z,2.90
2022-12-19T21:17:03.541Z,2.40
2022-12-19T21:19:32.446Z,2.70
2022-12-19T21:22:04.824Z,4.10
2022-12-19T21:27:02.377Z,2.60
2022-12-19T21:29:31.484Z,4.40
2022-12-19T21:32:00.461Z,3.40
2022-12-19T21:34:29.678Z,6.10
2022-12-19T21:36:58.453Z,4.00
2022-12-19T21:39:27.296Z,6.40
2022-12-19T21:41:56.239Z,4.90
2022-12-19T21:44:25.027Z,3.20
2022-12-19T21:46:53.873Z,4.80
2022-12-19T21:49:22.921Z,5.30
2022-12-19T21:51:51.915Z,4.60
2022-12-19T21:54:20.995Z,3.00
2022-12-19T21:56:49.783Z,2.50
2022-12-19T21:59:18.706Z,4.30
2022-12-19T22:01:47.882Z,3.20
2022-12-19T22:04:21.198Z,2.50
2022-12-19T22:06:51.439Z,3.80
2022-12-19T22:09:22.801Z,4.00
2022-12-19T22:11:51.955Z,2.90
2022-12-19T22:14:20.618Z,3.70
2022-12-19T22:16:49.819Z,3.80
2022-12-19T22:19:20.042Z,5.00
2022-12-19T22:21:48.731Z,3.00
2022-12-19T22:24:18.141Z,2.90
2022-12-19T22:26:46.834Z,4.40
2022-12-19T22:29:17.234Z,3.10
2022-12-19T22:31:46.713Z,4.40
2022-12-19T22:34:18.611Z,2.60
2022-12-19T22:36:49.035Z,5.30
2022-12-19T22:39:20.082Z,4.50
2022-12-19T22:41:48.864Z,3.00
2022-12-19T22:44:21.271Z,4.80
2022-12-19T22:46:50.983Z,5.70
2022-12-19T22:49:20.182Z,2.30
2022-12-19T22:51:50.146Z,2.70
2022-12-19T22:54:18.811Z,2.40
2022-12-19T22:56:51.048Z,2.60
2022-12-19T22:59:19.919Z,2.60
2022-12-19T23:01:48.869Z,2.80
2022-12-19T23:04:18.069Z,4.90
2022-12-19T23:06:47.227Z,3.10
2022-12-19T23:09:17.730Z,3.30
2022-12-19T23:11:49.379Z,2.60
2022-12-19T23:14:19.574Z,2.40
2022-12-19T23:16:49.221Z,4.90
2022-12-19T23:19:18.808Z,2.20
2022-12-19T23:21:48.013Z,4.00
2022-12-19T23:24:17.005Z,1.70
2022-12-19T23:26:46.197Z,2.20
2022-12-19T23:29:15.890Z,1.90
2022-12-19T23:31:46.940Z,2.10
2022-12-19T23:34:17.395Z,3.70
2022-12-19T23:39:35.583Z,3.30
2022-12-19T23:42:04.896Z,3.10
2022-12-19T23:44:33.927Z,5.80
2022-12-19T23:47:03.749Z,2.60
2022-12-19T23:49:34.034Z,3.20
2022-12-19T23:52:02.766Z,2.50
2022-12-19T23:54:31.645Z,3.90
2022-12-19T23:57:00.629Z,2.20
2022-12-19T23:59:29.456Z,1.40
